Time;durP1;ratioP1;P1;durP2;ratioP2;P2;SDS_P1;SDS_P2;PMS_P1;PMS_P2;Temp;Humidity;BMP_temperature;BMP_pressure;BME280_temperature;BME280_humidity;BME280_pressure;Samples;Min_cycle;Max_cycle;Signal;HPM_P1;HPM_P2
2023/10/09 00:01:53;;;;;;;22.98;9.65;;;14.90;99.90;;;;;;5072613;28;20084;-53
2023/10/09 00:04:20;;;;;;;24.95;9.10;;;14.90;99.90;;;;;;5072718;28;20477;-54
2023/10/09 00:06:46;;;;;;;23.25;9.13;;;14.80;99.90;;;;;;5072886;28;20120;-53
2023/10/09 00:09:30;;;;;;;21.73;9.13;;;14.90;99.90;;;;;;5072899;28;20381;-53
2023/10/09 00:11:57;;;;;;;28.48;9.88;;;14.80;99.90;;;;;;5076481;28;20033;-54
2023/10/09 00:14:30;;;;;;;24.40;9.70;;;14.70;99.90;;;;;;5076579;28;20404;-54
2023/10/09 00:17:17;;;;;;;22.27;8.68;;;14.60;99.90;;;;;;5076663;28;20064;-55
2023/10/09 00:19:43;;;;;;;27.10;9.75;;;14.50;99.90;;;;;;5076496;28;20095;-53
2023/10/09 00:22:20;;;;;;;22.67;8.93;;;14.50;99.90;;;;;;5076277;28;20064;-53
2023/10/09 00:24:49;;;;;;;20.90;8.35;;;14.50;99.90;;;;;;5077011;28;20094;-54
2023/10/09 00:27:19;;;;;;;22.58;8.75;;;14.50;99.90;;;;;;5076815;28;20037;-51
2023/10/09 00:29:45;;;;;;;15.93;8.10;;;14.60;99.90;;;;;;5058564;28;20468;-54
2023/10/09 00:34:43;;;;;;;17.17;8.13;;;14.70;99.90;;;;;;5058654;28;20027;-52
2023/10/09 00:37:16;;;;;;;22.15;8.75;;;14.70;99.90;;;;;;5058163;28;20032;-54
2023/10/09 00:39:43;;;;;;;20.33;8.43;;;14.70;99.90;;;;;;5076412;28;20068;-54
2023/10/09 00:42:27;;;;;;;23.17;9.27;;;14.90;99.90;;;;;;5058030;28;20131;-53
2023/10/09 00:44:53;;;;;;;20.65;8.30;;;14.90;99.90;;;;;;5058533;28;20039;-53
2023/10/09 00:47:22;;;;;;;20.92;8.05;;;15.00;99.90;;;;;;5058442;28;20033;-53
2023/10/09 00:50:01;;;;;;;23.02;8.10;;;15.10;99.90;;;;;;5058325;28;20032;-55
2023/10/09 00:52:36;;;;;;;19.75;8.02;;;15.10;99.90;;;;;;5076330;28;20047;-54
2023/10/09 00:55:08;;;;;;;20.38;8.57;;;15.00;99.90;;;;;;5058201;28;20029;-53
2023/10/09 00:57:37;;;;;;;20.25;8.20;;;14.90;99.90;;;;;;5076105;28;20500;-52
2023/10/09 01:00:12;;;;;;;23.00;7.95;;;14.90;99.90;;;;;;5058062;28;20056;-53
2023/10/09 01:02:42;;;;;;;16.77;7.35;;;15.00;99.90;;;;;;5058040;28;20062;-52
2023/10/09 01:05:30;;;;;;;21.13;7.38;;;15.00;99.90;;;;;;5076276;28;20481;-53
2023/10/09 01:07:58;;;;;;;20.20;7.57;;;15.00;99.90;;;;;;5057028;28;20040;-52
2023/10/09 01:10:25;;;;;;;;;;;14.90;99.90;;;;;;5076408;28;20435;-51
2023/10/09 01:12:55;;;;;;;19.80;7.32;;;14.90;99.90;;;;;;5057922;28;19995;-53
2023/10/09 01:15:36;;;;;;;19.55;7.53;;;14.80;99.90;;;;;;5076200;28;20032;-53
2023/10/09 01:18:02;;;;;;;21.90;7.38;;;14.90;99.90;;;;;;5076158;28;20056;-52
2023/10/09 01:20:32;;;;;;;17.95;6.97;;;14.90;99.90;;;;;;5057749;28;20039;-53
2023/10/09 01:23:01;;;;;;;20.60;7.32;;;14.90;99.90;;;;;;5055969;28;20079;-55
2023/10/09 01:25:38;;;;;;;23.52;7.25;;;14.90;99.90;;;;;;5057699;28;20091;-52
2023/10/09 01:28:07;;;;;;;17.73;6.93;;;14.80;99.90;;;;;;5075847;28;20031;-53
2023/10/09 01:30:33;;;;;;;16.40;7.05;;;14.70;99.90;;;;;;5075297;28;20021;-53
2023/10/09 01:33:11;;;;;;;18.77;7.20;;;14.70;99.90;;;;;;5075083;28;20397;-53
2023/10/09 01:35:46;;;;;;;17.02;7.20;;;14.60;99.90;;;;;;5057925;28;20033;-54
2023/10/09 01:38:14;;;;;;;13.50;6.80;;;14.60;99.90;;;;;;5057111;28;20040;-53
2023/10/09 01:40:40;;;;;;;14.75;7.50;;;14.60;99.90;;;;;;5057583;28;20036;-53
2023/10/09 01:43:10;;;;;;;19.73;7.57;;;14.50;99.90;;;;;;5057399;28;20044;-54
2023/10/09 01:45:46;;;;;;;17.45;6.85;;;14.40;99.90;;;;;;5057205;28;20029;-53
2023/10/09 01:48:14;;;;;;;16.02;6.50;;;14.30;99.90;;;;;;5075341;28;20043;-54
2023/10/09 01:50:41;;;;;;;18.83;7.73;;;14.30;99.90;;;;;;5075144;28;20020;-52
2023/10/09 01:53:17;;;;;;;14.13;6.00;;;14.20;99.90;;;;;;5057136;28;20029;-55
2023/10/09 01:55:45;;;;;;;19.50;7.53;;;14.10;99.90;;;;;;5056688;28;20064;-51
2023/10/09 01:58:24;;;;;;;13.85;6.40;;;14.10;99.90;;;;;;5056591;28;20028;-55
2023/10/09 02:01:02;;;;;;;20.63;6.88;;;14.00;99.90;;;;;;5056850;28;20177;-53
2023/10/09 02:03:29;;;;;;;15.75;6.60;;;14.00;99.90;;;;;;5056773;28;20040;-54
2023/10/09 02:06:02;;;;;;;17.48;6.50;;;14.10;99.90;;;;;;5056651;28;20128;-53
2023/10/09 02:08:29;;;;;;;17.45;7.10;;;14.20;99.90;;;;;;5056408;28;20040;-53
2023/10/09 02:10:56;;;;;;;16.80;6.93;;;14.10;99.90;;;;;;5074967;28;20020;-51
2023/10/09 02:13:29;;;;;;;15.30;7.18;;;14.10;99.90;;;;;;5056264;28;20448;-54
2023/10/09 02:18:54;;;;;;;18.77;7.03;;;14.00;99.90;;;;;;5056358;28;20028;-53
2023/10/09 02:21:29;;;;;;;14.95;6.07;;;14.00;99.90;;;;;;5055982;28;20040;-53
2023/10/09 02:23:57;;;;;;;17.10;6.95;;;14.00;99.90;;;;;;5074226;28;20067;-55
2023/10/09 02:26:26;;;;;;;16.70;7.10;;;14.10;99.90;;;;;;5074177;28;20400;-55
2023/10/09 02:28:58;;;;;;;16.98;7.03;;;14.10;99.90;;;;;;5079366;28;20032;-50
2023/10/09 02:31:35;;;;;;;15.45;6.47;;;14.10;99.90;;;;;;5074873;28;20060;-50
2023/10/09 02:34:04;;;;;;;15.65;6.93;;;14.00;99.90;;;;;;5055591;28;20129;-49
2023/10/09 02:36:30;;;;;;;13.85;7.22;;;13.90;99.90;;;;;;5056125;28;20060;-50
2023/10/09 02:38:56;;;;;;;17.00;6.90;;;13.90;99.90;;;;;;5055972;28;20036;-51
2023/10/09 02:41:23;;;;;;;13.73;6.07;;;13.80;99.90;;;;;;5074052;28;20024;-50
2023/10/09 02:43:55;;;;;;;14.25;7.18;;;13.80;99.90;;;;;;5073720;28;20021;-49
2023/10/09 02:46:28;;;;;;;13.95;6.80;;;13.90;99.90;;;;;;5074590;28;20039;-49
2023/10/09 02:48:57;;;;;;;17.98;6.32;;;13.80;99.90;;;;;;5074350;28;20115;-49
2023/10/09 02:53:57;;;;;;;17.98;6.90;;;14.00;99.90;;;;;;5074424;28;20036;-51
2023/10/09 02:56:36;;;;;;;15.07;5.75;;;14.10;99.90;;;;;;5056412;28;20020;-50
2023/10/09 02:59:05;;;;;;;14.32;6.10;;;14.10;99.90;;;;;;5074121;28;20029;-52
2023/10/09 03:01:31;;;;;;;15.48;6.22;;;14.10;99.90;;;;;;5056579;28;20035;-50
2023/10/09 03:03:59;;;;;;;13.80;6.47;;;14.10;99.90;;;;;;5056069;28;20032;-50
2023/10/09 03:06:30;;;;;;;15.27;6.82;;;14.10;99.90;;;;;;5056514;28;20024;-49
2023/10/09 03:08:57;;;;;;;13.98;5.82;;;14.10;99.90;;;;;;5055822;28;20032;-49
2023/10/09 03:11:23;;;;;;;14.13;5.88;;;14.00;99.90;;;;;;5056338;28;20066;-49
2023/10/09 03:13:49;;;;;;;15.10;6.25;;;14.10;99.90;;;;;;5073850;28;20069;-49
2023/10/09 03:16:21;;;;;;;14.93;6.78;;;14.10;99.90;;;;;;5056296;28;20362;-51
2023/10/09 03:18:49;;;;;;;14.40;6.45;;;14.20;99.90;;;;;;5039711;28;20051;-49
2023/10/09 03:21:16;;;;;;;18.77;6.47;;;14.10;99.90;;;;;;5074484;28;20040;-50
2023/10/09 03:23:43;;;;;;;15.55;6.43;;;14.10;99.90;;;;;;5074177;28;20526;-53
2023/10/09 03:26:10;;;;;;;16.20;6.32;;;14.10;99.90;;;;;;5073935;28;20039;-52
2023/10/09 03:28:36;;;;;;;14.82;6.43;;;14.20;99.90;;;;;;5073752;28;20032;-50
2023/10/09 03:31:02;;;;;;;15.02;6.70;;;14.30;99.90;;;;;;5074385;28;20031;-51
2023/10/09 03:33:32;;;;;;;18.77;6.25;;;14.30;99.90;;;;;;5073601;28;20120;-53
2023/10/09 03:36:00;;;;;;;13.13;6.03;;;14.30;99.90;;;;;;5073794;28;20406;-53
2023/10/09 03:38:29;;;;;;;15.88;6.22;;;14.30;99.90;;;;;;5073894;28;20082;-52
2023/10/09 03:40:55;;;;;;;15.18;6.10;;;14.30;99.90;;;;;;5073533;28;20035;-50
2023/10/09 03:43:21;;;;;;;13.68;6.38;;;14.30;99.90;;;;;;5073418;28;20047;-52
2023/10/09 03:45:53;;;;;;;14.98;6.72;;;14.30;99.90;;;;;;5072721;28;20037;-51
2023/10/09 03:48:26;;;;;;;15.82;6.25;;;14.50;99.90;;;;;;5073233;28;20552;-52
2023/10/09 03:51:08;;;;;;;13.27;5.80;;;14.50;99.90;;;;;;5073406;28;20044;-50
2023/10/09 03:53:42;;;;;;;18.65;5.72;;;14.50;99.90;;;;;;5073411;28;20028;-53
2023/10/09 03:56:15;;;;;;;16.17;6.38;;;14.50;99.90;;;;;;5073168;28;20468;-50
2023/10/09 03:58:43;;;;;;;13.00;5.82;;;14.40;99.90;;;;;;5073142;28;20044;-52
2023/10/09 04:01:28;;;;;;;14.45;6.30;;;14.50;99.90;;;;;;5073991;28;20072;-52
2023/10/09 04:04:01;;;;;;;13.85;6.00;;;14.50;99.90;;;;;;5055213;28;20055;-50
2023/10/09 04:06:32;;;;;;;14.70;5.68;;;14.50;99.90;;;;;;5055622;28;20056;-52
2023/10/09 04:11:46;;;;;;;15.73;5.80;;;14.40;99.90;;;;;;5073009;28;20070;-55
2023/10/09 04:14:24;;;;;;;13.55;5.10;;;14.40;99.90;;;;;;5072839;28;20047;-55
2023/10/09 04:17:03;;;;;;;15.30;5.90;;;14.40;99.90;;;;;;5073222;28;20074;-54
2023/10/09 04:19:29;;;;;;;;;;;14.50;99.90;;;;;;5073065;28;20036;-53
2023/10/09 04:21:58;;;;;;;12.48;5.38;;;14.60;99.90;;;;;;5054600;28;20441;-55
2023/10/09 04:24:24;;;;;;;14.63;5.55;;;14.60;99.90;;;;;;5072880;28;20036;-55
2023/10/09 04:26:56;;;;;;;9.30;5.53;;;14.70;99.90;;;;;;5072743;28;20028;-51
2023/10/09 04:29:38;;;;;;;14.98;6.07;;;14.80;99.90;;;;;;5073332;28;20059;-52
2023/10/09 04:32:07;;;;;;;11.60;5.60;;;14.90;99.90;;;;;;5072669;28;20374;-55
2023/10/09 04:34:48;;;;;;;14.00;5.57;;;14.90;99.90;;;;;;5072755;28;20103;-55
2023/10/09 04:39:46;;;;;;;14.30;5.55;;;15.10;99.90;;;;;;5073352;28;20392;-55
2023/10/09 04:47:36;;;;;;;13.35;6.28;;;15.20;99.90;;;;;;5072833;28;20036;-54
2023/10/09 04:50:08;;;;;;;16.73;5.72;;;15.20;99.90;;;;;;5072711;28;20025;-53
2023/10/09 04:57:45;;;;;;;10.60;5.03;;;15.30;99.90;;;;;;5075689;28;20068;-53
2023/10/09 05:02:57;;;;;;;14.07;5.47;;;15.50;99.90;;;;;;5076922;28;20036;-54
2023/10/09 05:08:19;;;;;;;12.02;4.85;;;15.50;99.90;;;;;;5076516;28;20103;-53
2023/10/09 05:16:05;;;;;;;12.25;5.65;;;15.60;99.90;;;;;;5075818;28;20033;-54
2023/10/09 05:18:37;;;;;;;11.55;4.95;;;15.50;99.90;;;;;;5075732;28;20043;-51
2023/10/09 05:23:44;;;;;;;14.05;5.63;;;15.40;99.90;;;;;;5075662;28;20035;-50
2023/10/09 05:28:58;;;;;;;10.60;6.07;;;15.30;99.90;;;;;;5075087;28;20447;-53
2023/10/09 05:34:08;;;;;;;13.43;5.78;;;15.30;99.90;;;;;;5075005;28;19944;-50
2023/10/09 05:36:35;;;;;;;14.35;5.78;;;15.40;99.90;;;;;;5075598;28;20032;-51
2023/10/09 05:47:22;;;;;;;12.25;6.47;;;15.50;99.90;;;;;;5075203;28;20028;-53
2023/10/09 05:49:47;;;;;;;13.40;6.30;;;15.70;99.90;;;;;;5075184;28;20028;-55
2023/10/09 06:09:09;;;;;;;13.75;5.63;;;15.60;99.90;;;;;;5073641;28;20097;-55
2023/10/09 06:19:26;;;;;;;14.35;6.25;;;15.70;99.90;;;;;;5074040;28;20028;-54
2023/10/09 06:30:14;;;;;;;13.48;5.30;;;15.60;99.90;;;;;;5074037;28;19909;-52
2023/10/09 06:35:30;;;;;;;15.60;7.00;;;15.60;99.90;;;;;;5074207;28;20025;-51
2023/10/09 06:41:34;;;;;;;19.00;8.60;;;15.90;99.90;;;;;;5074257;28;20033;-54
2023/10/09 06:43:49;;;;;;;13.65;6.03;;;16.00;99.90;;;;;;5073715;28;20456;-51
2023/10/09 06:48:56;;;;;;;11.27;5.50;;;16.20;99.90;;;;;;5074098;28;20033;-50
2023/10/09 06:58:54;;;;;;;10.52;4.93;;;16.20;99.90;;;;;;5073702;28;20278;-53
2023/10/09 07:04:18;;;;;;;13.05;5.93;;;16.20;99.90;;;;;;5073574;28;20393;-53
2023/10/09 07:06:48;;;;;;;12.70;6.43;;;16.20;99.90;;;;;;5055746;28;20029;-52
2023/10/09 07:17:04;;;;;;;12.80;5.87;;;16.40;99.90;;;;;;5074111;28;20021;-54
2023/10/09 07:22:03;;;;;;;12.90;5.50;;;16.50;99.90;;;;;;5073972;28;20025;-54
2023/10/09 07:24:43;;;;;;;14.55;5.63;;;16.60;99.90;;;;;;5074178;28;20056;-53
2023/10/09 07:27:10;;;;;;;13.88;5.25;;;16.60;99.90;;;;;;5073595;28;20028;-54
2023/10/09 07:29:47;;;;;;;12.85;5.57;;;16.60;99.90;;;;;;5073789;28;20021;-52
2023/10/09 07:32:22;;;;;;;12.98;5.82;;;16.50;99.90;;;;;;5072942;28;20039;-54
2023/10/09 07:34:57;;;;;;;15.13;5.95;;;16.60;99.90;;;;;;5073345;28;20055;-50
2023/10/09 07:37:23;;;;;;;13.55;5.75;;;16.70;99.90;;;;;;5072986;28;20035;-55
2023/10/09 07:39:57;;;;;;;16.20;7.43;;;16.70;99.90;;;;;;5072803;28;20500;-53
2023/10/09 07:48:04;;;;;;;15.65;6.97;;;16.80;99.90;;;;;;5073527;28;20042;-55
2023/10/09 07:50:48;;;;;;;15.10;6.25;;;16.80;99.90;;;;;;5055289;28;20028;-53
2023/10/09 07:53:14;;;;;;;14.57;6.00;;;16.90;99.90;;;;;;5073072;28;20534;-54
2023/10/09 07:55:45;;;;;;;11.77;5.93;;;16.90;99.90;;;;;;5073167;28;20037;-51
2023/10/09 07:58:14;;;;;;;11.65;5.80;;;16.90;99.90;;;;;;5073109;28;20070;-52
2023/10/09 08:03:24;;;;;;;14.07;6.25;;;17.00;99.90;;;;;;5073002;28;20032;-54
2023/10/09 08:05:53;;;;;;;16.45;7.32;;;16.90;99.90;;;;;;5072788;28;20484;-52
2023/10/09 08:14:41;;;;;;;11.85;6.15;;;16.90;99.90;;;;;;5072336;28;20111;-55
2023/10/09 08:16:36;;;;;;;15.90;6.00;;;17.00;99.90;;;;;;5068390;28;20087;-54
2023/10/09 08:19:51;;;;;;;15.32;6.43;;;17.10;99.90;;;;;;5072483;28;20036;-54
2023/10/09 08:22:42;;;;;;;13.95;5.90;;;17.10;99.90;;;;;;5068109;28;20045;-53
2023/10/09 08:24:52;;;;;;;15.48;6.32;;;17.10;99.90;;;;;;5077774;22;20068;-50
2023/10/09 08:32:42;;;;;;;11.55;6.22;;;17.40;99.90;;;;;;5033308;28;20029;-51
2023/10/09 08:37:53;;;;;;;13.35;6.25;;;17.50;99.90;;;;;;5034026;28;20033;-54
2023/10/09 08:40:20;;;;;;;14.75;6.05;;;17.40;99.90;;;;;;5033709;28;20039;-53
2023/10/09 08:42:53;;;;;;;14.48;6.07;;;17.40;99.90;;;;;;5033787;28;20140;-52
2023/10/09 08:45:27;;;;;;;15.88;7.10;;;17.30;99.90;;;;;;5033645;28;20108;-50
2023/10/09 08:47:57;;;;;;;12.10;5.88;;;17.40;99.90;;;;;;5033480;28;20037;-49
2023/10/09 08:50:28;;;;;;;14.05;6.85;;;17.40;99.90;;;;;;5032206;28;20059;-52
2023/10/09 08:52:55;;;;;;;12.85;6.45;;;17.30;99.90;;;;;;5033430;28;20405;-51
2023/10/09 08:55:20;;;;;;;13.65;6.60;;;17.30;99.90;;;;;;5033533;28;20201;-51
2023/10/09 08:57:46;;;;;;;16.92;6.50;;;17.30;99.90;;;;;;5033453;28;20091;-51
2023/10/09 09:00:23;;;;;;;21.60;8.98;;;17.30;99.90;;;;;;5033751;28;20037;-49
2023/10/09 09:02:50;;;;;;;15.60;7.88;;;17.40;99.90;;;;;;5033262;28;20060;-51
2023/10/09 09:05:24;;;;;;;13.82;7.20;;;17.40;99.90;;;;;;5033625;28;20031;-53
2023/10/09 09:07:56;;;;;;;16.73;7.00;;;17.40;99.90;;;;;;5015487;28;20108;-50
2023/10/09 09:10:34;;;;;;;14.02;6.25;;;17.50;99.90;;;;;;5033059;28;20475;-52
2023/10/09 09:13:03;;;;;;;;;;;17.60;99.90;;;;;;5033495;28;20035;-50
2023/10/09 09:15:30;;;;;;;14.65;6.55;;;17.70;99.90;;;;;;5033168;28;19909;-54
2023/10/09 09:18:06;;;;;;;14.48;6.43;;;17.80;99.90;;;;;;5032981;28;20124;-50
2023/10/09 09:20:39;;;;;;;11.80;6.28;;;17.90;99.90;;;;;;5032848;28;20046;-55
2023/10/09 09:23:12;;;;;;;12.70;6.43;;;18.20;99.90;;;;;;5032856;28;20451;-51
2023/10/09 09:25:47;;;;;;;14.07;6.10;;;18.40;99.90;;;;;;5032794;28;20115;-55
2023/10/09 09:28:19;;;;;;;13.45;5.30;;;18.60;99.90;;;;;;5032816;28;20033;-53
2023/10/09 09:30:50;;;;;;;14.35;6.05;;;18.50;99.90;;;;;;5032876;28;20030;-50
2023/10/09 09:33:42;;;;;;;14.60;5.72;;;18.60;99.90;;;;;;5032720;28;20026;-52
2023/10/09 09:36:11;;;;;;;14.57;6.07;;;18.50;99.90;;;;;;5033089;28;20079;-55
2023/10/09 09:38:49;;;;;;;15.27;6.13;;;18.60;99.90;;;;;;5032684;28;20033;-54
2023/10/09 09:41:25;;;;;;;10.85;5.05;;;18.50;99.90;;;;;;5033084;28;20037;-52
2023/10/09 09:43:56;;;;;;;14.60;6.28;;;18.50;99.90;;;;;;5031487;28;20029;-55
2023/10/09 09:46:44;;;;;;;12.68;6.45;;;18.50;99.90;;;;;;5032618;28;20038;-55
2023/10/09 09:49:21;;;;;;;13.90;6.55;;;18.50;99.90;;;;;;5031863;28;20398;-50
2023/10/09 09:51:47;;;;;;;14.10;6.83;;;18.40;99.90;;;;;;5032464;28;20037;-54
2023/10/09 09:54:15;;;;;;;11.68;5.50;;;18.40;99.90;;;;;;5031137;28;20043;-55
2023/10/09 09:56:50;;;;;;;14.75;5.97;;;18.40;99.90;;;;;;5032409;28;20034;-50
2023/10/09 09:59:27;;;;;;;11.70;5.32;;;18.40;99.90;;;;;;5032243;28;20044;-52
2023/10/09 10:01:58;;;;;;;13.43;6.00;;;18.40;99.90;;;;;;5032208;28;20053;-52
2023/10/09 10:04:27;;;;;;;13.02;5.93;;;18.50;99.90;;;;;;5032460;28;20478;-56
2023/10/09 10:06:55;;;;;;;;;;;18.80;99.90;;;;;;5033256;28;20037;-55
2023/10/09 10:09:40;;;;;;;12.25;5.53;;;19.10;99.90;;;;;;5032003;28;20464;-53
2023/10/09 10:12:10;;;;;;;13.32;5.75;;;19.20;99.90;;;;;;5032204;28;20083;-55
2023/10/09 10:15:15;;;;;;;13.93;5.93;;;19.30;99.90;;;;;;5032396;28;20060;-56
2023/10/09 10:18:04;;;;;;;12.63;5.07;;;19.40;99.90;;;;;;5031809;28;20446;-52
2023/10/09 10:20:31;;;;;;;13.20;5.85;;;19.40;99.90;;;;;;5014371;28;20032;-51
2023/10/09 10:23:31;;;;;;;13.43;5.30;;;19.40;99.90;;;;;;5031983;28;20044;-55
2023/10/09 10:26:26;;;;;;;11.73;5.20;;;19.50;99.90;;;;;;5017311;28;20387;-52
2023/10/09 10:29:23;;;;;;;12.02;5.63;;;19.40;99.90;;;;;;5031603;28;20033;-56
2023/10/09 10:31:56;;;;;;;13.05;5.55;;;19.50;99.90;;;;;;5031708;28;20038;-54
2023/10/09 10:34:24;;;;;;;10.00;5.22;;;19.40;99.90;;;;;;5031801;28;20030;-54
2023/10/09 10:36:59;;;;;;;16.73;6.03;;;19.20;99.90;;;;;;5031675;28;20029;-54
2023/10/09 10:39:44;;;;;;;12.15;5.55;;;19.30;99.90;;;;;;5031611;28;20033;-55
2023/10/09 10:42:33;;;;;;;10.73;5.22;;;19.40;99.90;;;;;;5031512;28;20034;-53
2023/10/09 10:44:56;;;;;;;14.73;5.72;;;19.50;99.90;;;;;;5031522;28;20053;-55
2023/10/09 10:47:34;;;;;;;13.52;5.45;;;19.50;99.90;;;;;;5031655;28;20029;-52
2023/10/09 10:52:57;;;;;;;11.07;5.75;;;19.60;99.90;;;;;;5031030;28;20104;-54
2023/10/09 10:58:02;;;;;;;20.20;9.63;;;19.50;99.90;;;;;;5031254;28;20039;-54
2023/10/09 11:06:14;;;;;;;13.00;6.05;;;19.60;99.90;;;;;;5031176;28;20479;-55
2023/10/09 11:08:56;;;;;;;15.77;6.38;;;19.60;99.90;;;;;;5031062;28;20076;-54
2023/10/09 11:11:23;;;;;;;14.07;6.80;;;19.60;99.90;;;;;;5031064;28;20040;-54
2023/10/09 11:13:58;;;;;;;16.73;6.15;;;19.50;99.90;;;;;;5030793;28;20401;-52
2023/10/09 11:16:47;;;;;;;13.32;5.60;;;19.70;99.90;;;;;;5031068;28;20115;-56
2023/10/09 11:19:32;;;;;;;;;;;19.90;99.90;;;;;;5031165;28;20041;-53
2023/10/09 11:24:35;;;;;;;13.45;5.38;;;20.10;99.90;;;;;;5030837;28;20048;-55
2023/10/09 11:27:06;;;;;;;14.98;5.57;;;20.10;99.90;;;;;;5030640;28;20043;-55
2023/10/09 11:32:18;;;;;;;15.88;6.03;;;20.20;99.90;;;;;;5030571;28;20109;-53
2023/10/09 11:34:54;;;;;;;10.98;4.90;;;20.20;99.90;;;;;;5030706;28;20105;-54
2023/10/09 11:38:20;;;;;;;15.18;6.40;;;20.20;99.90;;;;;;5030925;28;20095;-54
2023/10/09 11:43:15;;;;;;;12.45;5.82;;;20.40;99.90;;;;;;5030505;28;20037;-53
2023/10/09 11:45:54;;;;;;;12.80;5.60;;;20.30;99.90;;;;;;5030572;28;20064;-51
2023/10/09 11:48:33;;;;;;;15.60;6.30;;;20.50;99.90;;;;;;5030451;28;20061;-54
2023/10/09 11:55:53;;;;;;;12.30;6.13;;;20.80;99.90;;;;;;5030524;28;20037;-54
2023/10/09 11:58:23;;;;;;;15.25;6.25;;;21.00;99.90;;;;;;5030680;28;20022;-55
2023/10/09 12:00:50;;;;;;;15.70;6.40;;;21.10;99.90;;;;;;5030494;28;20125;-55
2023/10/09 12:03:16;;;;;;;12.80;6.60;;;21.00;99.90;;;;;;5030277;28;20033;-53
2023/10/09 12:05:45;;;;;;;13.27;6.68;;;20.80;99.90;;;;;;5030585;28;20056;-54
2023/10/09 12:08:15;;;;;;;14.90;6.57;;;20.70;99.90;;;;;;5034243;28;20513;-56
2023/10/09 12:10:41;;;;;;;12.13;6.00;;;20.60;99.90;;;;;;5034387;28;20041;-55
2023/10/09 12:13:07;;;;;;;11.70;6.20;;;20.50;99.90;;;;;;5034406;28;20075;-53
2023/10/09 12:15:39;;;;;;;11.48;5.80;;;20.40;99.90;;;;;;5034748;28;20436;-52
2023/10/09 12:18:14;;;;;;;14.15;6.82;;;20.30;99.90;;;;;;5034303;28;20095;-53
2023/10/09 12:20:41;;;;;;;14.40;6.40;;;20.30;99.90;;;;;;5033995;28;20482;-51
2023/10/09 12:23:06;;;;;;;10.93;5.65;;;20.50;99.90;;;;;;5034025;28;20486;-54
2023/10/09 12:25:35;;;;;;;10.75;5.78;;;20.50;99.90;;;;;;5034063;28;20091;-52
2023/10/09 12:28:02;;;;;;;14.75;6.68;;;20.50;99.90;;;;;;5033886;28;20044;-53
2023/10/09 12:30:29;;;;;;;15.50;7.40;;;20.50;99.90;;;;;;5033900;28;20025;-52
2023/10/09 12:32:58;;;;;;;15.35;6.18;;;20.50;99.90;;;;;;5034121;28;20113;-55
2023/10/09 12:35:27;;;;;;;;;;;20.40;99.90;;;;;;5034598;28;20076;-52
2023/10/09 12:37:58;;;;;;;13.57;6.88;;;20.40;99.90;;;;;;5033822;28;19966;-55
2023/10/09 12:40:24;;;;;;;14.73;6.40;;;20.50;99.90;;;;;;5033871;28;20367;-56
2023/10/09 12:42:52;;;;;;;14.57;6.95;;;20.50;99.90;;;;;;5034103;28;20039;-56
2023/10/09 12:45:20;;;;;;;13.75;6.63;;;20.60;99.90;;;;;;5033725;28;20072;-54
2023/10/09 12:47:47;;;;;;;13.95;6.70;;;20.70;99.90;;;;;;5033873;28;20045;-49
2023/10/09 12:50:13;;;;;;;15.55;7.15;;;20.70;99.90;;;;;;5033618;28;20065;-52
2023/10/09 12:52:40;;;;;;;15.10;6.95;;;20.70;99.90;;;;;;5033470;28;20471;-51
2023/10/09 12:55:07;;;;;;;15.73;6.32;;;20.70;99.90;;;;;;5033939;28;20033;-53
2023/10/09 12:57:36;;;;;;;16.20;7.05;;;20.80;99.90;;;;;;5034025;28;20479;-53
2023/10/09 13:00:10;;;;;;;;;;;20.70;99.90;;;;;;5034182;28;20025;-51
2023/10/09 13:02:36;;;;;;;15.77;6.60;;;20.70;99.90;;;;;;5033513;28;19909;-54
2023/10/09 13:05:04;;;;;;;16.00;6.40;;;20.80;99.90;;;;;;5033542;28;20112;-50
2023/10/09 13:07:30;;;;;;;13.50;6.55;;;20.80;99.90;;;;;;5033380;28;20038;-52
2023/10/09 13:10:13;;;;;;;13.07;6.57;;;20.70;99.90;;;;;;5033119;28;20028;-55
2023/10/09 13:12:41;;;;;;;25.95;14.25;;;20.80;99.90;;;;;;5033161;28;20063;-50
2023/10/09 13:15:10;;;;;;;17.30;9.93;;;20.80;99.90;;;;;;5033610;28;20079;-50
2023/10/09 13:17:37;;;;;;;32.47;16.48;;;21.00;99.90;;;;;;5033032;28;20439;-54
2023/10/09 13:20:12;;;;;;;18.08;9.75;;;21.10;99.90;;;;;;5033142;28;20180;-52
2023/10/09 13:22:48;;;;;;;17.00;7.00;;;21.10;99.90;;;;;;5032937;28;20585;-54
2023/10/09 13:25:16;;;;;;;14.68;6.60;;;21.10;99.90;;;;;;5032967;28;20091;-55
2023/10/09 13:27:50;;;;;;;15.55;6.72;;;21.20;99.90;;;;;;5032812;28;20033;-55
2023/10/09 13:30:23;;;;;;;13.70;7.00;;;21.30;99.90;;;;;;5032849;28;20589;-56
2023/10/09 13:32:51;;;;;;;13.70;7.55;;;21.30;99.90;;;;;;5032726;28;20113;-51
2023/10/09 13:35:27;;;;;;;17.52;7.13;;;21.30;99.90;;;;;;5032887;28;20055;-54
2023/10/09 13:37:56;;;;;;;20.23;7.07;;;21.20;99.90;;;;;;5032691;28;20379;-55
2023/10/09 13:40:28;;;;;;;15.18;7.15;;;21.10;99.90;;;;;;5032648;28;20620;-53
2023/10/09 13:42:58;;;;;;;18.50;7.60;;;21.10;99.90;;;;;;5032536;28;20042;-54
2023/10/09 13:45:28;;;;;;;16.80;8.10;;;21.20;99.90;;;;;;5032704;28;20511;-56
2023/10/09 13:47:57;;;;;;;13.18;7.03;;;21.20;99.90;;;;;;5032344;28;20029;-53
2023/10/09 13:50:32;;;;;;;14.80;7.07;;;21.20;99.90;;;;;;5032382;28;20489;-56
2023/10/09 13:52:59;;;;;;;17.98;7.80;;;21.20;99.90;;;;;;5032326;28;20112;-53
2023/10/09 13:55:31;;;;;;;18.63;8.32;;;21.20;99.90;;;;;;5032538;28;20451;-56
2023/10/09 13:57:58;;;;;;;20.40;10.07;;;21.20;99.90;;;;;;5032806;28;20073;-54
2023/10/09 14:00:33;;;;;;;17.77;7.90;;;21.20;99.90;;;;;;5032197;28;20503;-56
2023/10/09 14:03:01;;;;;;;15.20;7.20;;;21.20;99.90;;;;;;5032133;28;20120;-53
2023/10/09 14:05:29;;;;;;;22.25;10.27;;;21.20;99.90;;;;;;5032286;28;20497;-53
2023/10/09 14:07:59;;;;;;;17.77;8.15;;;21.20;99.90;;;;;;5032221;28;20486;-56
2023/10/09 14:10:30;;;;;;;17.75;9.48;;;21.20;99.90;;;;;;5032084;28;20082;-56
2023/10/09 14:12:56;;;;;;;17.52;8.57;;;21.10;99.90;;;;;;5031876;28;20049;-56
2023/10/09 14:15:23;;;;;;;18.92;8.48;;;21.10;99.90;;;;;;5032125;28;20077;-55
2023/10/09 14:17:55;;;;;;;17.33;8.55;;;21.10;99.90;;;;;;5031934;28;20033;-56
2023/10/09 14:20:31;;;;;;;21.38;9.68;;;21.00;99.90;;;;;;5031925;28;20545;-54
2023/10/09 14:23:12;;;;;;;19.75;8.82;;;20.90;99.90;;;;;;5031708;28;20037;-51
2023/10/09 14:25:39;;;;;;;18.88;8.45;;;21.00;99.90;;;;;;5063404;22;20560;-49
2023/10/09 14:28:09;;;;;;;19.05;9.77;;;20.90;99.90;;;;;;5074132;28;20033;-50
2023/10/09 14:30:44;;;;;;;16.58;7.55;;;21.00;99.90;;;;;;5073681;28;20036;-48
2023/10/09 14:33:12;;;;;;;14.38;7.28;;;21.00;99.90;;;;;;5073585;28;20060;-51
2023/10/09 14:35:39;;;;;;;14.70;6.95;;;20.90;99.90;;;;;;5056466;28;20227;-50
2023/10/09 14:38:12;;;;;;;13.52;6.60;;;20.80;99.90;;;;;;5074292;28;20039;-49
2023/10/09 14:40:41;;;;;;;15.32;7.35;;;20.90;99.90;;;;;;5073809;28;20033;-50
2023/10/09 14:43:08;;;;;;;18.70;8.30;;;21.00;99.90;;;;;;5056311;28;20481;-49
2023/10/09 14:45:37;;;;;;;16.05;8.73;;;20.90;99.90;;;;;;5073721;28;20086;-51
2023/10/09 14:48:03;;;;;;;17.30;8.60;;;20.90;99.90;;;;;;5074221;28;20040;-50
2023/10/09 14:50:28;;;;;;;16.13;7.72;;;20.80;99.90;;;;;;5056174;28;20033;-52
2023/10/09 14:52:54;;;;;;;16.38;7.88;;;20.80;99.90;;;;;;5074561;28;20032;-50
2023/10/09 14:55:20;;;;;;;16.40;7.75;;;20.80;99.90;;;;;;5074168;28;20496;-49
2023/10/09 14:57:53;;;;;;;17.80;8.00;;;20.60;99.90;;;;;;5073186;28;20484;-49
2023/10/09 15:00:22;;;;;;;14.85;8.18;;;20.60;99.90;;;;;;5073510;28;20036;-51
2023/10/09 15:02:50;;;;;;;17.92;9.02;;;20.50;99.90;;;;;;5073538;28;20054;-50
2023/10/09 15:05:16;;;;;;;18.02;8.25;;;20.40;99.90;;;;;;5073803;28;20028;-50
2023/10/09 15:07:42;;;;;;;17.63;8.40;;;20.50;99.90;;;;;;5074153;28;20044;-50
2023/10/09 15:10:09;;;;;;;17.85;8.50;;;20.50;99.90;;;;;;5073195;28;20157;-52
2023/10/09 15:12:42;;;;;;;18.98;8.75;;;20.40;99.90;;;;;;5073406;28;20465;-51
2023/10/09 15:15:13;;;;;;;22.35;9.38;;;20.40;99.90;;;;;;5073546;28;20033;-50
2023/10/09 15:17:43;;;;;;;17.92;8.35;;;20.40;99.90;;;;;;5074042;28;20032;-52
2023/10/09 15:20:13;;;;;;;17.65;8.98;;;20.30;99.90;;;;;;5073142;28;20385;-54
2023/10/09 15:22:43;;;;;;;18.77;9.48;;;20.30;99.90;;;;;;5073437;28;20024;-53
2023/10/09 15:25:14;;;;;;;17.25;8.65;;;20.30;99.90;;;;;;5055322;28;20032;-53
2023/10/09 15:27:40;;;;;;;18.42;8.98;;;20.20;99.90;;;;;;5073188;28;20036;-54
2023/10/09 15:30:13;;;;;;;22.15;9.25;;;20.30;99.90;;;;;;5073254;28;20028;-52
2023/10/09 15:32:41;;;;;;;15.90;8.98;;;20.40;99.90;;;;;;5055124;28;20093;-55
2023/10/09 15:35:09;;;;;;;19.80;10.50;;;20.40;99.90;;;;;;5055097;28;20044;-52
2023/10/09 15:37:36;;;;;;;21.58;10.88;;;20.30;99.90;;;;;;5073074;28;20060;-53
2023/10/09 15:40:13;;;;;;;27.85;14.15;;;20.30;99.90;;;;;;5072833;28;20082;-53